createdAt,value
2017-10-30T00:00:36.720Z,6.20
2017-10-30T00:03:06.749Z,6.20
2017-10-30T00:05:36.535Z,6.10
2017-10-30T00:08:05.707Z,6.00
2017-10-30T00:10:35.003Z,6.00
2017-10-30T00:13:04.235Z,5.90
2017-10-30T00:15:33.386Z,6.00
2017-10-30T00:18:03.542Z,5.90
2017-10-30T00:20:32.726Z,5.80
2017-10-30T00:23:01.900Z,5.80
2017-10-30T00:25:31.354Z,5.70
2017-10-30T00:28:00.576Z,5.50
2017-10-30T00:30:30.494Z,5.40
2017-10-30T00:33:00.547Z,5.10
2017-10-30T00:35:29.734Z,5.10
2017-10-30T00:37:58.897Z,5.00
2017-10-30T00:40:28.804Z,5.10
2017-10-30T00:42:58.785Z,5.10
2017-10-30T00:45:27.984Z,5.10
2017-10-30T00:47:57.144Z,5.10
2017-10-30T00:50:29.869Z,5.00
2017-10-30T00:52:59.734Z,4.90
2017-10-30T00:55:30.117Z,5.10
2017-10-30T00:57:59.640Z,5.10
2017-10-30T01:00:29.533Z,5.00
2017-10-30T01:02:59.101Z,5.10
2017-10-30T01:05:28.256Z,5.10
2017-10-30T01:07:57.363Z,5.10
2017-10-30T01:10:27.578Z,5.20
2017-10-30T01:12:57.426Z,5.30
2017-10-30T01:15:26.503Z,5.30
2017-10-30T01:17:56.372Z,5.30
2017-10-30T01:20:26.513Z,5.30
2017-10-30T01:22:55.675Z,5.20
2017-10-30T01:25:24.978Z,5.30
2017-10-30T01:27:55.043Z,5.30
2017-10-30T01:30:24.258Z,5.40
2017-10-30T01:32:54.291Z,5.30
2017-10-30T01:35:23.717Z,5.30
2017-10-30T01:37:52.526Z,5.40
2017-10-30T01:40:21.729Z,5.50
2017-10-30T01:42:51.844Z,5.50
2017-10-30T01:45:21.028Z,5.50
2017-10-30T01:47:51.682Z,5.50
2017-10-30T01:50:20.893Z,5.40
2017-10-30T01:52:50.140Z,5.50
2017-10-30T01:55:19.686Z,5.40
2017-10-30T01:57:49.057Z,5.40
2017-10-30T02:00:18.345Z,5.30
2017-10-30T02:02:48.342Z,5.10
2017-10-30T02:05:18.933Z,4.90
2017-10-30T02:07:48.071Z,4.90
2017-10-30T02:10:17.190Z,4.80
2017-10-30T02:12:47.190Z,4.60
2017-10-30T02:15:17.421Z,4.50
2017-10-30T02:17:46.587Z,4.50
2017-10-30T02:20:15.988Z,4.40
2017-10-30T02:22:45.203Z,4.10
2017-10-30T02:25:14.868Z,4.00
2017-10-30T02:27:44.069Z,3.90
2017-10-30T02:30:13.708Z,3.70
2017-10-30T02:32:42.885Z,3.70
2017-10-30T02:35:13.107Z,3.70
2017-10-30T02:37:42.309Z,3.60
2017-10-30T02:40:11.686Z,3.50
2017-10-30T02:42:41.565Z,3.40
2017-10-30T02:45:11.219Z,3.40
2017-10-30T02:47:40.666Z,3.50
2017-10-30T02:50:10.075Z,3.50
2017-10-30T02:52:40.026Z,3.50
2017-10-30T02:55:09.222Z,3.50
2017-10-30T02:57:38.155Z,3.40
2017-10-30T03:00:07.400Z,3.30
2017-10-30T03:02:36.935Z,3.30
2017-10-30T03:05:07.132Z,3.20
2017-10-30T03:07:35.997Z,3.10
2017-10-30T03:10:04.948Z,3.10
2017-10-30T03:12:34.359Z,3.00
2017-10-30T03:15:03.273Z,3.10
2017-10-30T03:17:33.021Z,3.10
2017-10-30T03:20:01.531Z,3.10
2017-10-30T03:22:30.758Z,3.00
2017-10-30T03:24:59.621Z,3.00
2017-10-30T03:27:28.939Z,3.00
2017-10-30T03:29:58.236Z,2.90
2017-10-30T03:32:28.256Z,2.90
2017-10-30T03:34:57.593Z,2.90
2017-10-30T03:37:26.753Z,2.90
2017-10-30T03:39:55.922Z,2.90
2017-10-30T03:42:25.381Z,2.90
2017-10-30T03:44:55.931Z,2.80
2017-10-30T03:47:25.151Z,2.70
2017-10-30T03:49:55.095Z,2.70
2017-10-30T03:52:25.334Z,2.70
2017-10-30T03:54:54.541Z,2.60
2017-10-30T03:57:24.279Z,2.50
2017-10-30T03:59:53.392Z,2.40
2017-10-30T04:02:22.744Z,2.40
2017-10-30T04:04:52.547Z,2.30
2017-10-30T04:07:21.475Z,2.30
2017-10-30T04:09:50.622Z,2.30
2017-10-30T04:12:21.237Z,2.20
2017-10-30T04:14:50.286Z,2.20
2017-10-30T04:17:19.495Z,2.10
2017-10-30T04:19:48.774Z,2.00
2017-10-30T04:22:18.850Z,2.00
2017-10-30T04:24:48.193Z,2.00
2017-10-30T04:27:17.346Z,2.00
2017-10-30T04:29:47.887Z,1.80
2017-10-30T04:32:17.924Z,1.80
2017-10-30T04:34:47.069Z,1.80
2017-10-30T04:37:17.331Z,1.80
2017-10-30T04:39:47.208Z,1.80
2017-10-30T04:42:17.123Z,1.80
2017-10-30T04:44:46.329Z,1.70
2017-10-30T04:47:15.461Z,1.70
2017-10-30T04:49:45.362Z,1.60
2017-10-30T04:52:14.652Z,1.60
2017-10-30T04:54:43.820Z,1.60
2017-10-30T04:57:13.769Z,1.60
2017-10-30T04:59:43.241Z,1.60
2017-10-30T05:02:12.392Z,1.40
2017-10-30T05:04:42.293Z,1.40
2017-10-30T05:07:11.806Z,1.30
2017-10-30T05:09:40.513Z,1.30
2017-10-30T05:12:09.212Z,1.30
2017-10-30T05:14:37.905Z,1.20
2017-10-30T05:17:06.570Z,1.10
2017-10-30T05:19:35.249Z,1.10
2017-10-30T05:22:03.946Z,1.10
2017-10-30T05:24:32.624Z,1.10
2017-10-30T05:27:01.291Z,1.20
2017-10-30T05:29:29.987Z,1.10
2017-10-30T05:31:58.673Z,1.10
2017-10-30T05:34:27.346Z,1.10
2017-10-30T05:36:56.025Z,1.00
2017-10-30T05:39:24.690Z,1.10
2017-10-30T05:41:53.510Z,1.00
2017-10-30T05:44:22.161Z,0.90
2017-10-30T05:46:51.582Z,1.10
2017-10-30T05:49:20.239Z,1.10
2017-10-30T05:51:48.905Z,1.20
2017-10-30T05:54:17.553Z,1.30
2017-10-30T05:56:46.224Z,1.30
2017-10-30T05:59:14.905Z,1.40
2017-10-30T06:01:44.326Z,1.50
2017-10-30T06:04:12.987Z,1.40
2017-10-30T06:06:42.443Z,1.70
2017-10-30T06:09:11.106Z,1.60
2017-10-30T06:11:39.762Z,1.70
2017-10-30T06:14:09.193Z,2.00
2017-10-30T06:16:37.854Z,2.00
2017-10-30T06:19:07.414Z,2.20
2017-10-30T06:21:36.073Z,2.20
2017-10-30T06:24:04.733Z,2.40
2017-10-30T06:26:34.178Z,2.80
2017-10-30T06:29:02.918Z,2.80
2017-10-30T06:31:31.634Z,3.00
2017-10-30T06:34:00.329Z,3.20
2017-10-30T06:36:29.001Z,3.30
2017-10-30T06:38:57.764Z,3.40
2017-10-30T06:41:26.466Z,3.50
2017-10-30T06:43:55.185Z,3.60
2017-10-30T06:46:23.840Z,3.70
2017-10-30T06:48:53.409Z,3.90
2017-10-30T06:51:22.094Z,3.90
2017-10-30T06:53:50.794Z,3.90
2017-10-30T06:56:19.521Z,3.90
2017-10-30T06:58:48.213Z,4.00
2017-10-30T07:01:17.669Z,4.30
2017-10-30T07:03:46.365Z,4.30
2017-10-30T07:06:15.036Z,4.50
2017-10-30T07:08:43.729Z,4.70
2017-10-30T07:11:12.440Z,5.00
2017-10-30T07:13:41.129Z,6.60
2017-10-30T07:16:10.263Z,12.60
2017-10-30T07:18:38.712Z,12.60
2017-10-30T07:21:07.126Z,15.60
2017-10-30T07:23:35.341Z,17.70
2017-10-30T07:26:03.853Z,19.60
2017-10-30T07:28:31.936Z,20.80
2017-10-30T07:31:00.371Z,21.20
2017-10-30T07:33:28.793Z,21.60
2017-10-30T07:35:57.198Z,21.60
2017-10-30T07:38:25.615Z,21.50
2017-10-30T07:40:54.824Z,17.20
2017-10-30T07:43:23.265Z,17.20
2017-10-30T07:45:51.676Z,17.60
2017-10-30T07:48:20.889Z,21.20
2017-10-30T07:50:48.615Z,21.20
2017-10-30T07:53:16.683Z,22.20
2017-10-30T07:55:44.783Z,23.50
2017-10-30T07:58:13.952Z,24.90
2017-10-30T08:00:42.009Z,24.80
2017-10-30T08:03:09.837Z,23.20
2017-10-30T08:05:37.545Z,23.30
2017-10-30T08:08:05.597Z,23.20
2017-10-30T08:10:34.026Z,23.30
2017-10-30T08:13:02.530Z,20.30
2017-10-30T08:15:30.595Z,20.20
2017-10-30T08:17:58.329Z,20.30
2017-10-30T08:20:26.578Z,21.20
2017-10-30T08:22:55.016Z,21.90
2017-10-30T08:25:24.206Z,23.60
2017-10-30T08:27:52.359Z,23.60
2017-10-30T08:30:20.762Z,24.60
2017-10-30T08:32:48.875Z,26.50
2017-10-30T08:35:17.706Z,27.90
2017-10-30T08:37:45.801Z,27.80
2017-10-30T08:40:13.935Z,29.40
2017-10-30T08:42:42.050Z,30.20
2017-10-30T08:45:10.552Z,30.90
2017-10-30T08:47:38.989Z,30.90
2017-10-30T08:50:07.523Z,30.60
2017-10-30T08:52:35.502Z,27.30
2017-10-30T08:55:03.560Z,26.70
2017-10-30T08:57:31.651Z,26.10
2017-10-30T08:59:59.370Z,25.90
2017-10-30T09:02:27.911Z,25.00
2017-10-30T09:04:55.656Z,24.90
2017-10-30T09:07:23.410Z,25.10
2017-10-30T09:09:51.129Z,24.40
2017-10-30T09:12:18.862Z,23.60
2017-10-30T09:14:46.950Z,21.30
2017-10-30T09:17:15.408Z,18.80
2017-10-30T09:19:44.010Z,18.00
2017-10-30T09:22:12.092Z,18.80
2017-10-30T09:24:39.801Z,20.40
2017-10-30T09:27:08.651Z,18.70
2017-10-30T09:29:36.196Z,18.60
2017-10-30T09:32:04.254Z,17.40
2017-10-30T09:34:32.693Z,17.50
2017-10-30T09:37:01.894Z,20.70
2017-10-30T09:39:30.390Z,22.30
2017-10-30T09:41:58.213Z,22.30
2017-10-30T09:44:25.952Z,22.60
2017-10-30T09:46:54.295Z,22.00
2017-10-30T09:49:23.740Z,22.40
2017-10-30T09:51:51.839Z,21.90
2017-10-30T09:54:19.578Z,22.20
2017-10-30T09:56:47.733Z,23.70
2017-10-30T09:59:15.864Z,22.50
2017-10-30T10:01:43.942Z,21.80
2017-10-30T10:04:12.303Z,21.90
2017-10-30T10:06:41.354Z,22.60
2017-10-30T10:09:09.098Z,22.70
2017-10-30T10:11:37.968Z,24.20
2017-10-30T10:14:05.759Z,24.10
2017-10-30T10:16:34.591Z,23.20
2017-10-30T10:19:03.046Z,23.10
2017-10-30T10:21:30.779Z,20.30
2017-10-30T10:23:58.623Z,18.20
2017-10-30T10:26:26.711Z,18.60
2017-10-30T10:28:55.385Z,18.90
2017-10-30T10:31:23.458Z,19.70
2017-10-30T10:33:51.544Z,20.70
2017-10-30T10:36:19.704Z,20.90
2017-10-30T10:38:47.678Z,21.00
2017-10-30T10:41:16.114Z,21.70
2017-10-30T10:43:44.320Z,22.80
2017-10-30T10:46:12.427Z,22.20
2017-10-30T10:48:40.853Z,21.70
2017-10-30T10:51:09.421Z,19.90
2017-10-30T10:53:37.531Z,20.20
2017-10-30T10:56:07.045Z,19.70
2017-10-30T10:58:37.046Z,20.10
2017-10-30T11:01:05.478Z,19.20
2017-10-30T11:03:34.330Z,17.80
2017-10-30T11:06:02.774Z,17.80
2017-10-30T11:08:31.211Z,16.80
2017-10-30T11:10:59.712Z,16.50
2017-10-30T11:13:29.204Z,15.90
2017-10-30T11:15:57.070Z,15.90
2017-10-30T11:18:25.983Z,15.70
2017-10-30T11:20:55.345Z,15.70
2017-10-30T11:23:24.115Z,15.70
2017-10-30T11:25:52.591Z,15.10
2017-10-30T11:28:21.332Z,14.70
2017-10-30T11:30:50.535Z,15.20
2017-10-30T11:33:19.788Z,15.30
2017-10-30T11:35:48.234Z,15.20
2017-10-30T11:38:17.428Z,15.40
2017-10-30T11:40:46.694Z,14.90
2017-10-30T11:43:15.144Z,14.90
2017-10-30T11:45:43.597Z,14.40
2017-10-30T11:48:12.385Z,14.40
2017-10-30T11:50:41.617Z,15.40
2017-10-30T11:53:10.043Z,15.40
2017-10-30T11:55:39.235Z,15.30
2017-10-30T11:58:07.653Z,15.20
2017-10-30T12:00:36.054Z,15.30
2017-10-30T12:03:05.318Z,15.50
2017-10-30T12:05:34.518Z,15.70
2017-10-30T12:08:02.281Z,15.60
2017-10-30T12:10:30.472Z,15.30
2017-10-30T12:12:58.918Z,14.60
2017-10-30T12:15:27.351Z,15.10
2017-10-30T12:17:55.803Z,15.60
2017-10-30T12:20:24.219Z,15.60
2017-10-30T12:22:52.672Z,15.70
2017-10-30T12:25:21.109Z,16.20
2017-10-30T12:27:49.521Z,16.30
2017-10-30T12:30:18.774Z,15.90
2017-10-30T12:32:47.213Z,15.90
2017-10-30T12:35:16.410Z,16.50
2017-10-30T12:37:44.843Z,16.60
2017-10-30T12:40:13.299Z,15.70
2017-10-30T12:42:41.697Z,16.50
2017-10-30T12:45:10.128Z,17.90
2017-10-30T12:47:38.698Z,17.70
2017-10-30T12:50:07.145Z,17.60
2017-10-30T12:52:35.571Z,18.20
2017-10-30T12:55:04.454Z,18.30
2017-10-30T12:57:32.522Z,18.30
2017-10-30T13:00:00.258Z,18.40
2017-10-30T13:02:28.707Z,17.60
2017-10-30T13:04:56.778Z,17.00
2017-10-30T13:07:25.175Z,16.40
2017-10-30T13:09:53.601Z,15.80
2017-10-30T13:12:22.013Z,14.80
2017-10-30T13:14:50.234Z,13.90
2017-10-30T13:17:18.681Z,13.70
2017-10-30T13:19:47.078Z,13.50
2017-10-30T13:22:15.129Z,13.30
2017-10-30T13:24:43.548Z,12.90
2017-10-30T13:27:11.605Z,12.80
2017-10-30T13:29:40.054Z,12.70
2017-10-30T13:32:09.245Z,12.40
2017-10-30T13:34:38.496Z,12.30
2017-10-30T13:37:06.925Z,12.30
2017-10-30T13:39:35.490Z,12.10
2017-10-30T13:42:03.905Z,12.10
2017-10-30T13:44:32.305Z,12.00
2017-10-30T13:47:00.753Z,12.00
2017-10-30T13:49:30.192Z,11.80
2017-10-30T13:51:58.599Z,11.80
2017-10-30T13:54:27.040Z,11.80
2017-10-30T13:56:55.446Z,11.60
2017-10-30T13:59:23.878Z,11.40
2017-10-30T14:01:53.117Z,11.20
2017-10-30T14:04:21.517Z,11.10
2017-10-30T14:06:49.913Z,11.20
2017-10-30T14:09:18.342Z,11.10
2017-10-30T14:11:46.745Z,10.80
2017-10-30T14:14:15.150Z,10.70
2017-10-30T14:16:43.602Z,10.50
2017-10-30T14:19:12.025Z,10.30
2017-10-30T14:21:40.725Z,10.20
2017-10-30T14:24:09.418Z,9.90
2017-10-30T14:26:38.098Z,9.70
2017-10-30T14:29:06.480Z,9.60
2017-10-30T14:31:34.878Z,9.60
2017-10-30T14:34:03.550Z,9.60
2017-10-30T14:36:31.905Z,9.60
2017-10-30T14:39:00.433Z,9.50
2017-10-30T14:41:28.421Z,9.40
2017-10-30T14:43:58.092Z,9.30
2017-10-30T14:46:26.803Z,9.30
2017-10-30T14:48:54.774Z,9.10
2017-10-30T14:51:22.756Z,9.00
2017-10-30T14:53:52.238Z,8.90
2017-10-30T14:56:20.715Z,8.90
2017-10-30T14:58:49.071Z,8.90
2017-10-30T15:01:17.426Z,8.90
2017-10-30T15:03:46.182Z,8.90
2017-10-30T15:06:14.175Z,8.90
2017-10-30T15:08:42.971Z,8.90
2017-10-30T15:11:11.214Z,8.80
2017-10-30T15:13:39.904Z,8.70
2017-10-30T15:16:08.221Z,8.70
2017-10-30T15:18:36.237Z,8.70
2017-10-30T15:21:04.226Z,8.70
2017-10-30T15:23:32.546Z,8.50
2017-10-30T15:26:01.222Z,8.50
2017-10-30T15:28:29.688Z,8.50
2017-10-30T15:30:58.017Z,8.50
2017-10-30T15:33:26.338Z,8.50
2017-10-30T15:35:55.018Z,8.50
2017-10-30T15:38:23.753Z,8.40
2017-10-30T15:40:52.096Z,8.40
2017-10-30T15:43:21.586Z,8.40
2017-10-30T15:45:50.417Z,8.40
2017-10-30T15:48:18.737Z,8.40
2017-10-30T15:50:47.502Z,8.30
2017-10-30T15:53:16.184Z,8.20
2017-10-30T15:55:44.565Z,8.20
2017-10-30T15:58:13.252Z,8.10
2017-10-30T16:00:41.918Z,8.10
2017-10-30T16:03:10.590Z,8.10
2017-10-30T16:05:39.262Z,8.10
2017-10-30T16:08:07.937Z,8.10
2017-10-30T16:10:36.633Z,8.10
2017-10-30T16:13:05.297Z,8.20
2017-10-30T16:15:33.958Z,8.20
2017-10-30T16:18:02.485Z,8.20
2017-10-30T16:20:31.149Z,8.20
2017-10-30T16:22:59.818Z,8.20
2017-10-30T16:25:28.525Z,8.10
2017-10-30T16:27:57.193Z,8.20
2017-10-30T16:30:25.509Z,8.20
2017-10-30T16:32:54.219Z,8.20
2017-10-30T16:35:22.930Z,8.00
2017-10-30T16:37:51.613Z,8.00
2017-10-30T16:40:20.342Z,8.00
2017-10-30T16:42:48.711Z,8.00
2017-10-30T16:45:17.385Z,7.90
2017-10-30T16:47:46.251Z,7.90
2017-10-30T16:50:14.952Z,7.80
2017-10-30T16:52:43.645Z,7.80
2017-10-30T16:55:11.990Z,7.60
2017-10-30T16:57:40.661Z,7.60
2017-10-30T17:00:08.735Z,7.50
2017-10-30T17:02:37.447Z,7.50
2017-10-30T17:05:06.882Z,7.20
2017-10-30T17:07:35.600Z,7.10
2017-10-30T17:10:04.306Z,6.90
2017-10-30T17:12:32.975Z,7.00
2017-10-30T17:15:01.678Z,7.10
2017-10-30T17:17:30.406Z,7.20
2017-10-30T17:19:59.336Z,7.20
2017-10-30T17:22:28.099Z,7.20
2017-10-30T17:24:57.038Z,7.20
2017-10-30T17:27:25.717Z,7.10
2017-10-30T17:29:54.453Z,7.10
2017-10-30T17:32:23.133Z,7.00
2017-10-30T17:34:51.802Z,7.00
2017-10-30T17:37:20.532Z,6.90
2017-10-30T17:39:49.195Z,6.80
2017-10-30T17:42:17.908Z,6.70
2017-10-30T17:44:46.609Z,6.70
2017-10-30T17:47:15.279Z,6.60
2017-10-30T17:49:43.971Z,6.60
2017-10-30T17:52:12.630Z,6.40
2017-10-30T17:54:41.285Z,6.30
2017-10-30T17:57:09.962Z,6.30
2017-10-30T17:59:38.630Z,6.30
2017-10-30T18:02:07.311Z,6.40
2017-10-30T18:04:36.010Z,6.40
2017-10-30T18:07:04.334Z,6.30
2017-10-30T18:09:33.770Z,6.40
2017-10-30T18:12:02.460Z,6.40
2017-10-30T18:14:31.115Z,6.40
2017-10-30T18:17:00.547Z,6.50
2017-10-30T18:19:29.254Z,6.50
2017-10-30T18:22:03.397Z,6.60
2017-10-30T18:24:32.057Z,6.60
2017-10-30T18:27:01.202Z,6.60
2017-10-30T18:29:29.942Z,6.60
2017-10-30T18:31:58.645Z,6.60
2017-10-30T18:34:27.361Z,6.50
2017-10-30T18:36:57.148Z,6.50
2017-10-30T18:39:26.737Z,6.50
2017-10-30T18:41:56.773Z,6.50
2017-10-30T18:44:25.598Z,6.50
2017-10-30T18:46:55.034Z,6.50
2017-10-30T18:49:23.786Z,6.50
2017-10-30T18:51:53.230Z,6.50
2017-10-30T18:54:21.889Z,6.50
2017-10-30T18:56:50.590Z,6.50
2017-10-30T18:59:19.292Z,6.50
2017-10-30T19:01:47.970Z,6.50
2017-10-30T19:04:17.413Z,6.40
2017-10-30T19:06:46.588Z,6.40
2017-10-30T19:09:15.296Z,6.30
2017-10-30T19:11:44.018Z,6.20
2017-10-30T19:14:13.930Z,6.10
2017-10-30T19:16:42.688Z,6.10
2017-10-30T19:19:11.398Z,6.10
2017-10-30T19:21:40.202Z,6.10
2017-10-30T19:24:09.259Z,6.10
2017-10-30T19:26:38.970Z,5.90
2017-10-30T19:29:07.706Z,5.90
2017-10-30T19:31:36.401Z,5.90
2017-10-30T19:34:05.206Z,5.80
2017-10-30T19:36:34.169Z,5.80
2017-10-30T19:39:03.198Z,5.90
2017-10-30T19:41:32.234Z,5.90
2017-10-30T19:44:00.994Z,6.00
2017-10-30T19:46:29.701Z,6.10
2017-10-30T19:48:58.380Z,6.20
2017-10-30T19:51:27.073Z,6.40
2017-10-30T19:53:55.745Z,6.60
2017-10-30T19:56:24.512Z,6.80
2017-10-30T19:58:53.265Z,6.90
2017-10-30T20:01:21.964Z,6.90
2017-10-30T20:03:50.684Z,6.80
2017-10-30T20:09:48.845Z,6.70
2017-10-30T20:12:23.426Z,6.40
2017-10-30T20:14:52.127Z,6.40
2017-10-30T20:17:20.797Z,6.40
2017-10-30T20:19:49.543Z,6.40
2017-10-30T20:22:18.268Z,6.30
2017-10-30T20:24:46.943Z,6.30
2017-10-30T20:27:15.612Z,6.30
2017-10-30T20:29:44.338Z,6.40
2017-10-30T20:32:13.151Z,6.40
2017-10-30T20:34:41.856Z,6.40
2017-10-30T20:37:11.313Z,6.50
2017-10-30T20:39:40.030Z,6.40
2017-10-30T20:42:08.704Z,6.60
2017-10-30T20:44:37.404Z,6.60
2017-10-30T20:47:06.245Z,6.60
2017-10-30T20:49:34.960Z,6.60
2017-10-30T20:52:03.658Z,6.60
2017-10-30T20:54:32.364Z,6.70
2017-10-30T20:57:01.038Z,6.70
2017-10-30T20:59:29.732Z,6.70
2017-10-30T21:01:58.430Z,6.70
2017-10-30T21:04:27.114Z,6.70
2017-10-30T21:06:56.572Z,6.60
2017-10-30T21:09:25.277Z,6.60
2017-10-30T21:11:54.010Z,6.60
2017-10-30T21:14:22.725Z,6.50
2017-10-30T21:16:52.710Z,6.40
2017-10-30T21:19:21.424Z,6.40
2017-10-30T21:21:49.766Z,6.30
2017-10-30T21:24:18.459Z,6.20
2017-10-30T21:26:47.138Z,6.10
2017-10-30T21:29:16.052Z,6.00
2017-10-30T21:31:45.541Z,5.90
2017-10-30T21:34:14.831Z,5.90
2017-10-30T21:36:43.520Z,5.70
2017-10-30T21:39:12.392Z,5.70
2017-10-30T21:41:41.078Z,5.70
2017-10-30T21:44:09.780Z,5.70
2017-10-30T21:46:38.473Z,5.70
2017-10-30T21:49:07.149Z,5.70
2017-10-30T21:51:35.838Z,5.80
2017-10-30T21:54:04.183Z,5.80
2017-10-30T21:56:32.886Z,5.80
2017-10-30T21:59:01.575Z,5.90
2017-10-30T22:01:30.276Z,5.90
2017-10-30T22:03:58.946Z,5.90
2017-10-30T22:06:27.633Z,5.80
2017-10-30T22:08:56.396Z,5.80
2017-10-30T22:11:25.095Z,5.80
2017-10-30T22:13:53.820Z,5.80
2017-10-30T22:16:22.499Z,5.90
2017-10-30T22:18:51.174Z,5.80
2017-10-30T22:21:19.905Z,5.70
2017-10-30T22:23:49.363Z,5.80
2017-10-30T22:26:18.049Z,5.80
2017-10-30T22:28:46.774Z,5.80
2017-10-30T22:31:15.456Z,5.90
2017-10-30T22:33:44.121Z,5.90
2017-10-30T22:36:12.930Z,5.90
2017-10-30T22:38:41.606Z,6.00
2017-10-30T22:41:10.291Z,6.00
2017-10-30T22:43:39.111Z,6.00
2017-10-30T22:46:08.553Z,6.00
2017-10-30T22:48:36.889Z,5.90
2017-10-30T22:51:06.329Z,6.00
2017-10-30T22:53:35.029Z,5.90
2017-10-30T22:56:03.714Z,5.90
2017-10-30T22:58:32.399Z,5.80
2017-10-30T23:01:01.137Z,5.80
2017-10-30T23:03:29.814Z,5.80
2017-10-30T23:05:58.517Z,5.80
2017-10-30T23:08:27.203Z,5.80
2017-10-30T23:10:56.659Z,5.80
2017-10-30T23:13:25.378Z,5.80
2017-10-30T23:15:54.067Z,5.80
2017-10-30T23:18:22.738Z,5.80
2017-10-30T23:20:51.471Z,5.80
2017-10-30T23:23:20.158Z,5.80
2017-10-30T23:25:49.594Z,5.80
2017-10-30T23:28:18.277Z,5.70
2017-10-30T23:30:46.966Z,5.70
2017-10-30T23:33:15.654Z,5.70
2017-10-30T23:35:44.336Z,5.70
2017-10-30T23:38:12.677Z,5.70
2017-10-30T23:40:42.155Z,5.60
2017-10-30T23:43:10.836Z,5.60
2017-10-30T23:45:39.542Z,5.60
2017-10-30T23:48:08.237Z,5.60
2017-10-30T23:50:37.718Z,5.60
2017-10-30T23:53:06.409Z,5.60
2017-10-30T23:55:35.132Z,5.60
2017-10-30T23:58:03.821Z,5.50
